Terminal Aerodrome Forecast
Issued by NWS Tampa Bay Area, FL

Home | Current Version | Previous Version | Text Only | Print | Product List | Glossary On
Versions: 1 2 3 4 5 6 7 8 9 10 11 12 13 14 15 16 17 18
000
FTUS42 KTBW 222101 AAA
TAFFMY
TAF AMD
KFMY 222101Z 2221/2318 12011KT P6SM VCTS SCT020CB BKN040
      TEMPO 2221/2222 1SM +TSRA BR SCT020CB BKN030
     FM222300 11007KT P6SM VCSH SCT025 BKN070
     FM230300 10006KT P6SM SCT070 BKN250
     FM231400 12009KT P6SM SCT015 BKN250
     FM231700 14008KT P6SM VCTS SCT025CB BKN040=

USA.gov is the U.S. government's official web portal to all federal, state and local government web resources and services.